sensor_id;sensor_type;location;lat;lon;timestamp;temperature;humidity
56478;DHT22;42382;53.210;5.772;2022-07-05T00:00:48;15.70;70.10
56478;DHT22;42382;53.210;5.772;2022-07-05T00:03:14;15.70;70.20
56478;DHT22;42382;53.210;5.772;2022-07-05T00:05:39;15.60;70.20
56478;DHT22;42382;53.210;5.772;2022-07-05T00:08:06;15.60;70.20
56478;DHT22;42382;53.210;5.772;2022-07-05T00:10:32;15.60;70.40
56478;DHT22;42382;53.210;5.772;2022-07-05T00:12:58;15.60;70.40
56478;DHT22;42382;53.210;5.772;2022-07-05T00:15:24;15.50;70.50
56478;DHT22;42382;53.210;5.772;2022-07-05T00:17:49;15.50;70.60
56478;DHT22;42382;53.210;5.772;2022-07-05T00:20:15;15.50;70.60
56478;DHT22;42382;53.210;5.772;2022-07-05T00:22:41;15.40;70.90
56478;DHT22;42382;53.210;5.772;2022-07-05T00:25:07;15.30;71.10
56478;DHT22;42382;53.210;5.772;2022-07-05T00:27:32;15.30;71.30
56478;DHT22;42382;53.210;5.772;2022-07-05T00:29:58;15.30;71.30
56478;DHT22;42382;53.210;5.772;2022-07-05T00:32:24;15.30;71.30
56478;DHT22;42382;53.210;5.772;2022-07-05T00:34:50;15.30;71.40
56478;DHT22;42382;53.210;5.772;2022-07-05T00:37:15;15.30;71.70
56478;DHT22;42382;53.210;5.772;2022-07-05T00:39:41;15.30;71.60
56478;DHT22;42382;53.210;5.772;2022-07-05T00:42:07;15.20;71.70
56478;DHT22;42382;53.210;5.772;2022-07-05T00:44:35;15.20;71.80
56478;DHT22;42382;53.210;5.772;2022-07-05T00:47:05;15.20;71.90
56478;DHT22;42382;53.210;5.772;2022-07-05T00:49:32;15.20;72.00
56478;DHT22;42382;53.210;5.772;2022-07-05T00:51:58;15.20;72.00
56478;DHT22;42382;53.210;5.772;2022-07-05T00:54:24;15.20;72.10
56478;DHT22;42382;53.210;5.772;2022-07-05T00:56:52;15.10;72.40
56478;DHT22;42382;53.210;5.772;2022-07-05T00:59:17;15.10;72.40
56478;DHT22;42382;53.210;5.772;2022-07-05T01:01:43;15.00;72.50
56478;DHT22;42382;53.210;5.772;2022-07-05T01:04:10;15.00;72.60
56478;DHT22;42382;53.210;5.772;2022-07-05T01:06:35;14.90;72.80
56478;DHT22;42382;53.210;5.772;2022-07-05T01:09:01;14.90;73.00
56478;DHT22;42382;53.210;5.772;2022-07-05T01:11:27;14.90;72.80
56478;DHT22;42382;53.210;5.772;2022-07-05T01:13:52;14.90;72.90
56478;DHT22;42382;53.210;5.772;2022-07-05T01:16:18;14.90;73.10
56478;DHT22;42382;53.210;5.772;2022-07-05T01:18:44;14.90;73.30
56478;DHT22;42382;53.210;5.772;2022-07-05T01:21:12;14.90;73.40
56478;DHT22;42382;53.210;5.772;2022-07-05T01:23:39;14.80;73.60
56478;DHT22;42382;53.210;5.772;2022-07-05T01:26:07;14.80;73.70
56478;DHT22;42382;53.210;5.772;2022-07-05T01:28:33;14.80;73.70
56478;DHT22;42382;53.210;5.772;2022-07-05T01:31:01;14.70;73.80
56478;DHT22;42382;53.210;5.772;2022-07-05T01:33:30;14.70;74.00
56478;DHT22;42382;53.210;5.772;2022-07-05T01:35:57;14.70;74.20
56478;DHT22;42382;53.210;5.772;2022-07-05T01:38:23;14.70;74.20
56478;DHT22;42382;53.210;5.772;2022-07-05T01:40:49;14.70;74.20
56478;DHT22;42382;53.210;5.772;2022-07-05T01:43:21;14.70;74.20
56478;DHT22;42382;53.210;5.772;2022-07-05T01:45:47;14.60;74.20
56478;DHT22;42382;53.210;5.772;2022-07-05T01:48:15;14.60;74.40
56478;DHT22;42382;53.210;5.772;2022-07-05T01:51:01;14.60;74.40
56478;DHT22;42382;53.210;5.772;2022-07-05T01:53:28;14.60;74.20
56478;DHT22;42382;53.210;5.772;2022-07-05T01:55:56;14.50;74.50
56478;DHT22;42382;53.210;5.772;2022-07-05T01:58:25;14.60;74.70
56478;DHT22;42382;53.210;5.772;2022-07-05T02:00:54;14.50;74.80
56478;DHT22;42382;53.210;5.772;2022-07-05T02:03:21;14.50;75.00
56478;DHT22;42382;53.210;5.772;2022-07-05T02:05:47;14.50;74.90
56478;DHT22;42382;53.210;5.772;2022-07-05T02:08:14;14.50;74.90
56478;DHT22;42382;53.210;5.772;2022-07-05T02:10:41;14.40;74.90
56478;DHT22;42382;53.210;5.772;2022-07-05T02:13:07;14.50;74.90
56478;DHT22;42382;53.210;5.772;2022-07-05T02:15:34;14.50;75.00
56478;DHT22;42382;53.210;5.772;2022-07-05T02:18:01;14.60;75.10
56478;DHT22;42382;53.210;5.772;2022-07-05T02:20:27;14.50;75.10
56478;DHT22;42382;53.210;5.772;2022-07-05T02:22:53;14.60;75.10
56478;DHT22;42382;53.210;5.772;2022-07-05T02:25:18;14.50;75.10
56478;DHT22;42382;53.210;5.772;2022-07-05T02:27:44;14.50;75.00
56478;DHT22;42382;53.210;5.772;2022-07-05T02:30:10;14.50;75.10
56478;DHT22;42382;53.210;5.772;2022-07-05T02:32:36;14.50;75.10
56478;DHT22;42382;53.210;5.772;2022-07-05T02:35:03;14.50;75.00
56478;DHT22;42382;53.210;5.772;2022-07-05T02:37:28;14.50;74.90
56478;DHT22;42382;53.210;5.772;2022-07-05T02:39:54;14.40;74.90
56478;DHT22;42382;53.210;5.772;2022-07-05T02:42:20;14.50;74.90
56478;DHT22;42382;53.210;5.772;2022-07-05T02:44:46;14.40;75.00
56478;DHT22;42382;53.210;5.772;2022-07-05T02:47:11;14.50;75.00
56478;DHT22;42382;53.210;5.772;2022-07-05T02:49:37;14.50;75.10
56478;DHT22;42382;53.210;5.772;2022-07-05T02:52:03;14.50;75.30
56478;DHT22;42382;53.210;5.772;2022-07-05T02:54:29;14.60;75.20
56478;DHT22;42382;53.210;5.772;2022-07-05T02:56:54;14.60;75.30
56478;DHT22;42382;53.210;5.772;2022-07-05T02:59:20;14.60;75.20
56478;DHT22;42382;53.210;5.772;2022-07-05T03:01:45;14.70;75.20
56478;DHT22;42382;53.210;5.772;2022-07-05T03:04:11;14.60;75.10
56478;DHT22;42382;53.210;5.772;2022-07-05T03:06:37;14.70;75.10
56478;DHT22;42382;53.210;5.772;2022-07-05T03:09:03;14.80;75.10
56478;DHT22;42382;53.210;5.772;2022-07-05T03:11:28;14.80;74.90
56478;DHT22;42382;53.210;5.772;2022-07-05T03:13:54;14.80;74.80
56478;DHT22;42382;53.210;5.772;2022-07-05T03:16:19;14.90;74.70
56478;DHT22;42382;53.210;5.772;2022-07-05T03:18:47;14.90;74.70
56478;DHT22;42382;53.210;5.772;2022-07-05T03:21:12;14.90;74.90
56478;DHT22;42382;53.210;5.772;2022-07-05T03:23:38;15.00;74.80
56478;DHT22;42382;53.210;5.772;2022-07-05T03:26:04;14.90;74.80
56478;DHT22;42382;53.210;5.772;2022-07-05T03:28:29;14.90;74.80
56478;DHT22;42382;53.210;5.772;2022-07-05T03:30:55;14.90;75.00
56478;DHT22;42382;53.210;5.772;2022-07-05T03:33:20;14.90;74.90
56478;DHT22;42382;53.210;5.772;2022-07-05T03:35:46;14.90;75.00
56478;DHT22;42382;53.210;5.772;2022-07-05T03:38:12;14.90;75.00
56478;DHT22;42382;53.210;5.772;2022-07-05T03:40:37;14.90;75.00
56478;DHT22;42382;53.210;5.772;2022-07-05T03:43:03;14.90;75.10
56478;DHT22;42382;53.210;5.772;2022-07-05T03:45:28;14.90;75.30
56478;DHT22;42382;53.210;5.772;2022-07-05T03:47:58;15.00;75.30
56478;DHT22;42382;53.210;5.772;2022-07-05T03:50:23;15.00;75.60
56478;DHT22;42382;53.210;5.772;2022-07-05T03:52:49;14.90;75.60
56478;DHT22;42382;53.210;5.772;2022-07-05T03:55:15;14.90;75.50
56478;DHT22;42382;53.210;5.772;2022-07-05T03:57:40;14.90;75.60
56478;DHT22;42382;53.210;5.772;2022-07-05T04:00:07;14.90;75.60
56478;DHT22;42382;53.210;5.772;2022-07-05T04:02:32;15.00;75.70
56478;DHT22;42382;53.210;5.772;2022-07-05T04:04:58;14.90;75.70
56478;DHT22;42382;53.210;5.772;2022-07-05T04:07:24;14.90;75.60
56478;DHT22;42382;53.210;5.772;2022-07-05T04:09:49;14.90;75.60
56478;DHT22;42382;53.210;5.772;2022-07-05T04:12:15;14.90;75.70
56478;DHT22;42382;53.210;5.772;2022-07-05T04:14:40;14.80;75.70
56478;DHT22;42382;53.210;5.772;2022-07-05T04:17:06;14.90;75.70
56478;DHT22;42382;53.210;5.772;2022-07-05T04:19:31;14.90;75.80
56478;DHT22;42382;53.210;5.772;2022-07-05T04:21:57;14.90;75.80
56478;DHT22;42382;53.210;5.772;2022-07-05T04:24:23;14.80;75.90
56478;DHT22;42382;53.210;5.772;2022-07-05T04:26:49;14.80;75.90
56478;DHT22;42382;53.210;5.772;2022-07-05T04:29:14;14.80;75.90
56478;DHT22;42382;53.210;5.772;2022-07-05T04:31:40;14.80;75.90
56478;DHT22;42382;53.210;5.772;2022-07-05T04:34:05;14.80;75.90
56478;DHT22;42382;53.210;5.772;2022-07-05T04:36:31;14.80;75.90
56478;DHT22;42382;53.210;5.772;2022-07-05T04:38:57;14.80;75.80
56478;DHT22;42382;53.210;5.772;2022-07-05T04:41:23;14.80;75.80
56478;DHT22;42382;53.210;5.772;2022-07-05T04:43:48;14.80;75.90
56478;DHT22;42382;53.210;5.772;2022-07-05T04:46:14;14.90;75.90
56478;DHT22;42382;53.210;5.772;2022-07-05T04:48:40;14.80;75.90
56478;DHT22;42382;53.210;5.772;2022-07-05T04:51:05;14.90;76.00
56478;DHT22;42382;53.210;5.772;2022-07-05T04:53:31;14.90;76.10
56478;DHT22;42382;53.210;5.772;2022-07-05T04:55:56;14.90;76.30
56478;DHT22;42382;53.210;5.772;2022-07-05T04:58:22;15.00;76.50
56478;DHT22;42382;53.210;5.772;2022-07-05T05:00:47;15.10;76.70
56478;DHT22;42382;53.210;5.772;2022-07-05T05:03:13;15.20;76.80
56478;DHT22;42382;53.210;5.772;2022-07-05T05:05:39;15.30;76.80
56478;DHT22;42382;53.210;5.772;2022-07-05T05:08:04;15.40;76.70
56478;DHT22;42382;53.210;5.772;2022-07-05T05:10:30;15.40;76.80
56478;DHT22;42382;53.210;5.772;2022-07-05T05:12:55;15.60;77.10
56478;DHT22;42382;53.210;5.772;2022-07-05T05:15:21;15.70;77.20
56478;DHT22;42382;53.210;5.772;2022-07-05T05:17:47;15.70;77.10
56478;DHT22;42382;53.210;5.772;2022-07-05T05:20:14;15.80;77.10
56478;DHT22;42382;53.210;5.772;2022-07-05T05:22:40;15.90;77.10
56478;DHT22;42382;53.210;5.772;2022-07-05T05:25:08;16.00;77.10
56478;DHT22;42382;53.210;5.772;2022-07-05T05:27:33;16.00;77.00
56478;DHT22;42382;53.210;5.772;2022-07-05T05:29:59;16.10;77.10
56478;DHT22;42382;53.210;5.772;2022-07-05T05:32:25;16.00;77.10
56478;DHT22;42382;53.210;5.772;2022-07-05T05:34:50;16.00;77.00
56478;DHT22;42382;53.210;5.772;2022-07-05T05:37:16;16.00;77.00
56478;DHT22;42382;53.210;5.772;2022-07-05T05:39:41;16.00;77.00
56478;DHT22;42382;53.210;5.772;2022-07-05T05:42:07;16.00;77.50
56478;DHT22;42382;53.210;5.772;2022-07-05T05:44:33;16.00;77.60
56478;DHT22;42382;53.210;5.772;2022-07-05T05:46:58;16.00;77.90
56478;DHT22;42382;53.210;5.772;2022-07-05T05:49:24;16.10;77.80
56478;DHT22;42382;53.210;5.772;2022-07-05T05:51:49;16.10;78.00
56478;DHT22;42382;53.210;5.772;2022-07-05T05:54:15;16.20;78.30
56478;DHT22;42382;53.210;5.772;2022-07-05T05:56:40;16.30;77.90
56478;DHT22;42382;53.210;5.772;2022-07-05T05:59:06;16.30;78.30
56478;DHT22;42382;53.210;5.772;2022-07-05T06:01:32;16.30;78.10
56478;DHT22;42382;53.210;5.772;2022-07-05T06:03:57;16.40;77.90
56478;DHT22;42382;53.210;5.772;2022-07-05T06:06:23;16.40;77.40
56478;DHT22;42382;53.210;5.772;2022-07-05T06:08:48;16.40;77.20
56478;DHT22;42382;53.210;5.772;2022-07-05T06:11:14;16.50;77.10
56478;DHT22;42382;53.210;5.772;2022-07-05T06:13:40;16.60;76.90
56478;DHT22;42382;53.210;5.772;2022-07-05T06:16:09;16.60;76.90
56478;DHT22;42382;53.210;5.772;2022-07-05T06:18:35;16.80;76.70
56478;DHT22;42382;53.210;5.772;2022-07-05T06:21:01;16.90;75.90
56478;DHT22;42382;53.210;5.772;2022-07-05T06:23:26;16.90;75.10
56478;DHT22;42382;53.210;5.772;2022-07-05T06:25:52;16.90;75.00
56478;DHT22;42382;53.210;5.772;2022-07-05T06:28:17;17.00;74.90
56478;DHT22;42382;53.210;5.772;2022-07-05T06:30:43;17.00;74.70
56478;DHT22;42382;53.210;5.772;2022-07-05T06:33:09;17.10;74.50
56478;DHT22;42382;53.210;5.772;2022-07-05T06:35:35;17.00;74.40
56478;DHT22;42382;53.210;5.772;2022-07-05T06:38:08;17.00;74.00
56478;DHT22;42382;53.210;5.772;2022-07-05T06:40:36;17.10;74.10
56478;DHT22;42382;53.210;5.772;2022-07-05T06:43:05;17.20;73.80
56478;DHT22;42382;53.210;5.772;2022-07-05T06:45:31;17.20;73.20
56478;DHT22;42382;53.210;5.772;2022-07-05T06:48:08;17.20;72.90
56478;DHT22;42382;53.210;5.772;2022-07-05T06:50:36;17.30;72.80
56478;DHT22;42382;53.210;5.772;2022-07-05T06:53:03;17.30;72.50
56478;DHT22;42382;53.210;5.772;2022-07-05T06:55:29;17.40;72.20
56478;DHT22;42382;53.210;5.772;2022-07-05T06:57:59;17.60;71.50
56478;DHT22;42382;53.210;5.772;2022-07-05T07:00:26;17.60;70.50
56478;DHT22;42382;53.210;5.772;2022-07-05T07:02:51;17.70;69.60
56478;DHT22;42382;53.210;5.772;2022-07-05T07:05:17;17.80;69.10
56478;DHT22;42382;53.210;5.772;2022-07-05T07:07:43;17.80;69.00
56478;DHT22;42382;53.210;5.772;2022-07-05T07:10:53;17.70;69.20
56478;DHT22;42382;53.210;5.772;2022-07-05T07:13:25;18.30;68.00
56478;DHT22;42382;53.210;5.772;2022-07-05T07:15:50;19.30;65.10
56478;DHT22;42382;53.210;5.772;2022-07-05T07:18:16;20.30;62.80
56478;DHT22;42382;53.210;5.772;2022-07-05T07:20:41;20.80;59.10
56478;DHT22;42382;53.210;5.772;2022-07-05T07:23:07;21.50;58.40
56478;DHT22;42382;53.210;5.772;2022-07-05T07:25:33;21.80;55.20
56478;DHT22;42382;53.210;5.772;2022-07-05T07:27:59;21.50;57.00
56478;DHT22;42382;53.210;5.772;2022-07-05T07:30:26;21.80;58.00
56478;DHT22;42382;53.210;5.772;2022-07-05T07:32:53;22.50;56.70
56478;DHT22;42382;53.210;5.772;2022-07-05T07:35:19;23.30;55.00
56478;DHT22;42382;53.210;5.772;2022-07-05T07:37:44;23.90;52.60
56478;DHT22;42382;53.210;5.772;2022-07-05T07:40:10;24.30;49.30
56478;DHT22;42382;53.210;5.772;2022-07-05T07:42:37;24.80;47.40
56478;DHT22;42382;53.210;5.772;2022-07-05T07:45:03;24.80;46.90
56478;DHT22;42382;53.210;5.772;2022-07-05T07:47:33;24.70;46.90
56478;DHT22;42382;53.210;5.772;2022-07-05T07:49:59;24.20;48.80
56478;DHT22;42382;53.210;5.772;2022-07-05T07:52:25;24.40;46.80
56478;DHT22;42382;53.210;5.772;2022-07-05T07:54:51;24.70;46.20
56478;DHT22;42382;53.210;5.772;2022-07-05T07:57:16;24.30;46.80
56478;DHT22;42382;53.210;5.772;2022-07-05T07:59:42;23.80;48.10
56478;DHT22;42382;53.210;5.772;2022-07-05T08:02:08;23.80;48.10
56478;DHT22;42382;53.210;5.772;2022-07-05T08:04:34;23.60;48.00
56478;DHT22;42382;53.210;5.772;2022-07-05T08:06:59;24.00;48.30
56478;DHT22;42382;53.210;5.772;2022-07-05T08:09:25;24.80;47.20
56478;DHT22;42382;53.210;5.772;2022-07-05T08:11:51;25.00;45.10
56478;DHT22;42382;53.210;5.772;2022-07-05T08:14:17;25.10;45.20
56478;DHT22;42382;53.210;5.772;2022-07-05T08:16:46;25.40;44.80
56478;DHT22;42382;53.210;5.772;2022-07-05T08:19:12;25.80;42.70
56478;DHT22;42382;53.210;5.772;2022-07-05T08:21:56;25.60;43.00
56478;DHT22;42382;53.210;5.772;2022-07-05T08:24:22;25.30;44.40
56478;DHT22;42382;53.210;5.772;2022-07-05T08:26:48;24.50;46.00
56478;DHT22;42382;53.210;5.772;2022-07-05T08:29:14;23.90;47.60
56478;DHT22;42382;53.210;5.772;2022-07-05T08:31:48;23.30;48.40
56478;DHT22;42382;53.210;5.772;2022-07-05T08:34:15;23.20;48.60
56478;DHT22;42382;53.210;5.772;2022-07-05T08:36:43;23.50;48.20
56478;DHT22;42382;53.210;5.772;2022-07-05T08:39:09;23.90;47.10
56478;DHT22;42382;53.210;5.772;2022-07-05T08:41:37;23.80;46.30
56478;DHT22;42382;53.210;5.772;2022-07-05T08:44:04;23.10;46.70
56478;DHT22;42382;53.210;5.772;2022-07-05T08:46:33;22.80;48.10
56478;DHT22;42382;53.210;5.772;2022-07-05T08:49:00;22.90;48.90
56478;DHT22;42382;53.210;5.772;2022-07-05T08:51:28;23.20;49.10
56478;DHT22;42382;53.210;5.772;2022-07-05T08:53:54;23.80;48.70
56478;DHT22;42382;53.210;5.772;2022-07-05T08:56:23;24.50;47.40
56478;DHT22;42382;53.210;5.772;2022-07-05T08:58:48;24.70;45.80
56478;DHT22;42382;53.210;5.772;2022-07-05T09:01:17;24.40;44.90
56478;DHT22;42382;53.210;5.772;2022-07-05T09:03:46;24.00;45.00
56478;DHT22;42382;53.210;5.772;2022-07-05T09:06:13;24.10;44.00
56478;DHT22;42382;53.210;5.772;2022-07-05T09:08:40;24.20;43.30
56478;DHT22;42382;53.210;5.772;2022-07-05T09:11:12;24.10;44.90
56478;DHT22;42382;53.210;5.772;2022-07-05T09:13:40;24.00;45.80
56478;DHT22;42382;53.210;5.772;2022-07-05T09:16:06;24.20;45.80
56478;DHT22;42382;53.210;5.772;2022-07-05T09:18:42;24.40;44.60
56478;DHT22;42382;53.210;5.772;2022-07-05T09:23:41;24.40;45.20
56478;DHT22;42382;53.210;5.772;2022-07-05T09:26:07;24.40;46.30
56478;DHT22;42382;53.210;5.772;2022-07-05T09:28:33;24.60;46.30
56478;DHT22;42382;53.210;5.772;2022-07-05T09:30:59;24.90;44.80
56478;DHT22;42382;53.210;5.772;2022-07-05T09:33:25;24.90;44.30
56478;DHT22;42382;53.210;5.772;2022-07-05T09:35:55;24.80;44.40
56478;DHT22;42382;53.210;5.772;2022-07-05T09:38:25;24.60;44.20
56478;DHT22;42382;53.210;5.772;2022-07-05T09:40:55;24.50;45.40
56478;DHT22;42382;53.210;5.772;2022-07-05T09:43:28;24.70;44.70
56478;DHT22;42382;53.210;5.772;2022-07-05T09:45:59;25.00;43.10
56478;DHT22;42382;53.210;5.772;2022-07-05T09:48:26;25.00;42.70
56478;DHT22;42382;53.210;5.772;2022-07-05T09:50:52;25.00;42.60
56478;DHT22;42382;53.210;5.772;2022-07-05T09:53:18;24.60;43.80
56478;DHT22;42382;53.210;5.772;2022-07-05T09:56:00;24.40;44.10
56478;DHT22;42382;53.210;5.772;2022-07-05T09:58:26;24.60;42.80
56478;DHT22;42382;53.210;5.772;2022-07-05T10:00:52;24.40;43.70
56478;DHT22;42382;53.210;5.772;2022-07-05T10:03:18;24.10;43.50
56478;DHT22;42382;53.210;5.772;2022-07-05T10:05:44;23.90;43.50
56478;DHT22;42382;53.210;5.772;2022-07-05T10:08:10;23.90;44.50
56478;DHT22;42382;53.210;5.772;2022-07-05T10:10:38;23.90;44.90
56478;DHT22;42382;53.210;5.772;2022-07-05T10:13:04;23.90;45.20
56478;DHT22;42382;53.210;5.772;2022-07-05T10:15:35;24.10;44.40
56478;DHT22;42382;53.210;5.772;2022-07-05T10:18:17;24.50;43.60
56478;DHT22;42382;53.210;5.772;2022-07-05T10:20:45;24.60;43.60
56478;DHT22;42382;53.210;5.772;2022-07-05T10:23:16;24.40;43.80
56478;DHT22;42382;53.210;5.772;2022-07-05T10:25:45;24.40;43.40
56478;DHT22;42382;53.210;5.772;2022-07-05T10:28:15;24.60;42.40
56478;DHT22;42382;53.210;5.772;2022-07-05T10:30:41;25.00;42.50
56478;DHT22;42382;53.210;5.772;2022-07-05T10:33:07;25.20;43.50
56478;DHT22;42382;53.210;5.772;2022-07-05T10:35:34;25.20;43.90
56478;DHT22;42382;53.210;5.772;2022-07-05T10:38:10;24.90;44.40
56478;DHT22;42382;53.210;5.772;2022-07-05T10:40:37;24.90;44.00
56478;DHT22;42382;53.210;5.772;2022-07-05T10:43:04;24.50;45.10
56478;DHT22;42382;53.210;5.772;2022-07-05T10:45:39;24.10;46.00
56478;DHT22;42382;53.210;5.772;2022-07-05T10:48:14;23.80;47.20
56478;DHT22;42382;53.210;5.772;2022-07-05T10:50:45;23.70;48.70
56478;DHT22;42382;53.210;5.772;2022-07-05T10:53:11;23.40;48.70
56478;DHT22;42382;53.210;5.772;2022-07-05T10:55:56;23.20;49.70
56478;DHT22;42382;53.210;5.772;2022-07-05T11:06:31;22.60;50.80
56478;DHT22;42382;53.210;5.772;2022-07-05T11:11:29;22.90;50.70
56478;DHT22;42382;53.210;5.772;2022-07-05T11:13:56;23.30;49.40
56478;DHT22;42382;53.210;5.772;2022-07-05T11:16:35;23.40;48.10
56478;DHT22;42382;53.210;5.772;2022-07-05T11:19:07;23.70;45.50
56478;DHT22;42382;53.210;5.772;2022-07-05T11:21:34;23.70;45.30
56478;DHT22;42382;53.210;5.772;2022-07-05T11:24:19;23.60;45.50
56478;DHT22;42382;53.210;5.772;2022-07-05T11:26:46;23.60;46.20
56478;DHT22;42382;53.210;5.772;2022-07-05T11:32:14;23.40;47.20
56478;DHT22;42382;53.210;5.772;2022-07-05T11:34:44;23.30;47.30
56478;DHT22;42382;53.210;5.772;2022-07-05T11:39:42;23.00;45.50
56478;DHT22;42382;53.210;5.772;2022-07-05T11:42:08;23.00;46.40
56478;DHT22;42382;53.210;5.772;2022-07-05T11:44:35;22.90;45.50
56478;DHT22;42382;53.210;5.772;2022-07-05T11:47:02;23.10;46.20
56478;DHT22;42382;53.210;5.772;2022-07-05T11:49:27;23.30;47.20
56478;DHT22;42382;53.210;5.772;2022-07-05T11:51:55;23.40;47.30
56478;DHT22;42382;53.210;5.772;2022-07-05T11:54:31;23.40;46.90
56478;DHT22;42382;53.210;5.772;2022-07-05T11:56:57;23.40;46.70
56478;DHT22;42382;53.210;5.772;2022-07-05T11:59:24;23.40;46.90
56478;DHT22;42382;53.210;5.772;2022-07-05T12:01:51;23.40;46.80
56478;DHT22;42382;53.210;5.772;2022-07-05T12:04:22;23.30;47.20
56478;DHT22;42382;53.210;5.772;2022-07-05T12:06:48;23.40;46.70
56478;DHT22;42382;53.210;5.772;2022-07-05T12:09:21;23.50;46.30
56478;DHT22;42382;53.210;5.772;2022-07-05T12:11:51;23.50;45.70
56478;DHT22;42382;53.210;5.772;2022-07-05T12:14:36;23.50;44.50
56478;DHT22;42382;53.210;5.772;2022-07-05T12:17:14;23.40;44.60
56478;DHT22;42382;53.210;5.772;2022-07-05T12:19:40;23.40;45.60
56478;DHT22;42382;53.210;5.772;2022-07-05T12:22:06;23.40;46.30
56478;DHT22;42382;53.210;5.772;2022-07-05T12:24:31;23.60;45.90
56478;DHT22;42382;53.210;5.772;2022-07-05T12:26:57;23.50;46.30
56478;DHT22;42382;53.210;5.772;2022-07-05T12:29:23;23.40;45.90
56478;DHT22;42382;53.210;5.772;2022-07-05T12:31:59;23.20;46.60
56478;DHT22;42382;53.210;5.772;2022-07-05T12:34:26;23.20;46.90
56478;DHT22;42382;53.210;5.772;2022-07-05T12:36:52;23.30;46.80
56478;DHT22;42382;53.210;5.772;2022-07-05T12:39:17;23.20;46.70
56478;DHT22;42382;53.210;5.772;2022-07-05T12:41:43;23.30;46.30
56478;DHT22;42382;53.210;5.772;2022-07-05T12:44:09;23.30;46.10
56478;DHT22;42382;53.210;5.772;2022-07-05T12:46:39;23.20;46.10
56478;DHT22;42382;53.210;5.772;2022-07-05T12:49:06;23.30;46.70
56478;DHT22;42382;53.210;5.772;2022-07-05T12:51:37;23.40;46.10
56478;DHT22;42382;53.210;5.772;2022-07-05T12:54:06;23.40;45.80
56478;DHT22;42382;53.210;5.772;2022-07-05T12:56:51;23.40;45.90
56478;DHT22;42382;53.210;5.772;2022-07-05T12:59:36;23.30;46.00
56478;DHT22;42382;53.210;5.772;2022-07-05T13:02:03;23.30;46.60
56478;DHT22;42382;53.210;5.772;2022-07-05T13:04:29;23.30;46.20
56478;DHT22;42382;53.210;5.772;2022-07-05T13:09:32;23.20;46.70
56478;DHT22;42382;53.210;5.772;2022-07-05T13:12:12;23.30;46.10
56478;DHT22;42382;53.210;5.772;2022-07-05T13:14:48;23.40;46.00
56478;DHT22;42382;53.210;5.772;2022-07-05T13:17:16;23.40;45.60
56478;DHT22;42382;53.210;5.772;2022-07-05T13:19:44;23.40;45.80
56478;DHT22;42382;53.210;5.772;2022-07-05T13:22:10;23.40;45.60
56478;DHT22;42382;53.210;5.772;2022-07-05T13:24:36;23.30;45.90
56478;DHT22;42382;53.210;5.772;2022-07-05T13:27:02;23.30;46.10
56478;DHT22;42382;53.210;5.772;2022-07-05T13:29:29;23.20;46.60
56478;DHT22;42382;53.210;5.772;2022-07-05T13:31:55;23.30;46.80
56478;DHT22;42382;53.210;5.772;2022-07-05T13:34:20;23.30;46.00
56478;DHT22;42382;53.210;5.772;2022-07-05T13:36:50;23.10;46.90
56478;DHT22;42382;53.210;5.772;2022-07-05T13:39:16;23.10;47.30
56478;DHT22;42382;53.210;5.772;2022-07-05T13:41:42;23.00;47.60
56478;DHT22;42382;53.210;5.772;2022-07-05T13:44:08;23.10;47.90
56478;DHT22;42382;53.210;5.772;2022-07-05T13:46:33;23.10;47.80
56478;DHT22;42382;53.210;5.772;2022-07-05T13:48:59;23.10;47.80
56478;DHT22;42382;53.210;5.772;2022-07-05T13:51:24;23.20;47.90
56478;DHT22;42382;53.210;5.772;2022-07-05T13:53:50;23.20;48.20
56478;DHT22;42382;53.210;5.772;2022-07-05T13:56:17;23.10;47.70
56478;DHT22;42382;53.210;5.772;2022-07-05T13:58:43;23.00;47.40
56478;DHT22;42382;53.210;5.772;2022-07-05T14:01:08;22.80;47.50
56478;DHT22;42382;53.210;5.772;2022-07-05T14:03:34;22.70;48.30
56478;DHT22;42382;53.210;5.772;2022-07-05T14:05:59;22.70;48.50
56478;DHT22;42382;53.210;5.772;2022-07-05T14:08:25;22.70;48.50
56478;DHT22;42382;53.210;5.772;2022-07-05T14:10:55;22.90;48.00
56478;DHT22;42382;53.210;5.772;2022-07-05T14:13:23;22.90;48.00
56478;DHT22;42382;53.210;5.772;2022-07-05T14:15:50;23.00;47.60
56478;DHT22;42382;53.210;5.772;2022-07-05T14:18:17;23.10;47.40
56478;DHT22;42382;53.210;5.772;2022-07-05T14:20:43;23.10;47.80
56478;DHT22;42382;53.210;5.772;2022-07-05T14:23:10;23.10;48.20
56478;DHT22;42382;53.210;5.772;2022-07-05T14:25:36;23.10;48.40
56478;DHT22;42382;53.210;5.772;2022-07-05T14:28:01;23.10;47.50
56478;DHT22;42382;53.210;5.772;2022-07-05T14:30:28;23.10;48.00
56478;DHT22;42382;53.210;5.772;2022-07-05T14:32:54;23.00;48.00
56478;DHT22;42382;53.210;5.772;2022-07-05T14:35:20;23.10;47.60
56478;DHT22;42382;53.210;5.772;2022-07-05T14:37:45;23.20;47.20
56478;DHT22;42382;53.210;5.772;2022-07-05T14:40:11;23.30;46.70
56478;DHT22;42382;53.210;5.772;2022-07-05T14:42:37;23.20;47.20
56478;DHT22;42382;53.210;5.772;2022-07-05T14:45:03;23.30;47.50
56478;DHT22;42382;53.210;5.772;2022-07-05T14:47:29;23.20;47.10
56478;DHT22;42382;53.210;5.772;2022-07-05T14:49:55;23.10;46.70
56478;DHT22;42382;53.210;5.772;2022-07-05T14:52:21;22.90;46.80
56478;DHT22;42382;53.210;5.772;2022-07-05T14:54:46;22.80;47.20
56478;DHT22;42382;53.210;5.772;2022-07-05T14:57:13;22.60;47.70
56478;DHT22;42382;53.210;5.772;2022-07-05T14:59:38;22.50;47.80
56478;DHT22;42382;53.210;5.772;2022-07-05T15:02:04;22.60;48.00
56478;DHT22;42382;53.210;5.772;2022-07-05T15:04:32;22.50;48.30
56478;DHT22;42382;53.210;5.772;2022-07-05T15:06:57;22.40;47.70
56478;DHT22;42382;53.210;5.772;2022-07-05T15:09:23;22.60;47.60
56478;DHT22;42382;53.210;5.772;2022-07-05T15:11:49;22.60;47.30
56478;DHT22;42382;53.210;5.772;2022-07-05T15:14:14;22.50;47.10
56478;DHT22;42382;53.210;5.772;2022-07-05T15:16:40;22.30;47.30
56478;DHT22;42382;53.210;5.772;2022-07-05T15:19:07;22.20;48.30
56478;DHT22;42382;53.210;5.772;2022-07-05T15:21:32;22.10;48.70
56478;DHT22;42382;53.210;5.772;2022-07-05T15:23:58;22.00;49.00
56478;DHT22;42382;53.210;5.772;2022-07-05T15:26:24;22.00;49.10
56478;DHT22;42382;53.210;5.772;2022-07-05T15:28:49;22.20;48.90
56478;DHT22;42382;53.210;5.772;2022-07-05T15:31:15;22.30;49.20
56478;DHT22;42382;53.210;5.772;2022-07-05T15:33:41;22.30;48.70
56478;DHT22;42382;53.210;5.772;2022-07-05T15:36:07;22.30;48.40
56478;DHT22;42382;53.210;5.772;2022-07-05T15:38:32;22.30;48.50
56478;DHT22;42382;53.210;5.772;2022-07-05T15:40:58;22.20;48.80
56478;DHT22;42382;53.210;5.772;2022-07-05T15:43:24;22.00;48.50
56478;DHT22;42382;53.210;5.772;2022-07-05T15:45:52;21.80;49.20
56478;DHT22;42382;53.210;5.772;2022-07-05T15:48:19;21.60;49.90
56478;DHT22;42382;53.210;5.772;2022-07-05T15:50:44;21.50;49.70